Cedar Point, Kansas
Current Conditions -  °F | °C
As of 1:55 AM on Wednesday 26 Nov 2014 (Local Time) from KEWK Reporting Station
Few Clouds Few Clouds  
Wind Chill:   Ceiling: Unl
Heat Index:   Visibility: 10mi
Dew Point: -4°   Wind: 10mph
Humidity: 56%   Direction: 250°WSW
Pressure: 29.96"   Gusts: NA
Location:  38.26°N, 96.82°W
Report Text: KEWK 260755Z AUTO 25009KT 10SM FEW090 04/M04 A2996 RMK AO1
Loading
Personal Weather Stations






























Interactive Weather Map New forecast layout! Learn more

10-Day Weather Forecast

Advertisements
Track Severe Weather on mobile